Pagrindinis puslapis
METAR-TAF:

METAR-TAF

Oro uostai :

Šel Mera, Ekvadoras

platuma: 01-30-19S, ilguma: 078-03-46W, Aukštis: 1056 m

Dabartinis oras

Ataskaita buvo paskelbta 10 valandos ir 8 minutes, ne 23:00 UTC
Vėjas 2 kt iš Šiaurės/Šiaurės Rytų
Temperatūra 23°C
Drėgmė 89%
Slėgis 1014 hPa
Matomumas 10 km arba daugiau
Mažai debesys ne aukštis 3000 ft
Su prošvaistėmis ne aukštis 10000 ft

METAR: SESM 202300Z 02002KT 9999 FEW030 BKN100 23/21 Q1014 RMK A2997

Laikas: 04:08 (09:08 UTC)


TAF: trūkstamas

Orai ataskaitas ir orų prognozės (METAR, TAF).

turimą stotys yra geltonos ir raudonos taškus žemėlapyje.

Perkelti pele per norėdami pamatyti stoties vardą.

Tada spustelėkite, norėdami matyti oro stebėjimo ir prognozės.

Norėdami pakeisti žemėlapį: spustelėkite ant žalios mygtukų su juodo kryžiaus žemyn,; žalią mygtuką su brūkšneliu, jei norite nutolinti; arba žalių rodyklių gretimoms žemėlapius.


METAR-TAF: